sensor_id;sensor_type;location;lat;lon;timestamp;pressure;altitude;pressure_sealevel;temperature;humidity
13581;BME280;6861;46.170;7.222;2023-11-21T00:00:40;95604.50;;;11.50;59.02
13581;BME280;6861;46.170;7.222;2023-11-21T00:03:09;95600.31;;;11.49;58.82
13581;BME280;6861;46.170;7.222;2023-11-21T00:05:40;95594.56;;;11.47;58.56
13581;BME280;6861;46.170;7.222;2023-11-21T00:08:08;95601.38;;;11.48;58.88
13581;BME280;6861;46.170;7.222;2023-11-21T00:10:37;95607.16;;;11.45;59.18
13581;BME280;6861;46.170;7.222;2023-11-21T00:13:06;95604.56;;;11.45;59.32
13581;BME280;6861;46.170;7.222;2023-11-21T00:15:34;95606.41;;;11.44;59.33
13581;BME280;6861;46.170;7.222;2023-11-21T00:18:03;95599.81;;;11.47;58.78
13581;BME280;6861;46.170;7.222;2023-11-21T00:20:32;95591.91;;;11.52;58.89
13581;BME280;6861;46.170;7.222;2023-11-21T00:23:02;95592.47;;;11.49;58.50
13581;BME280;6861;46.170;7.222;2023-11-21T00:25:30;95582.53;;;11.46;59.28
13581;BME280;6861;46.170;7.222;2023-11-21T00:27:59;95579.41;;;11.44;59.03
13581;BME280;6861;46.170;7.222;2023-11-21T00:30:28;95575.50;;;11.41;59.48
13581;BME280;6861;46.170;7.222;2023-11-21T00:32:58;95576.56;;;11.40;59.45
13581;BME280;6861;46.170;7.222;2023-11-21T00:35:26;95578.97;;;11.37;59.60
13581;BME280;6861;46.170;7.222;2023-11-21T00:37:55;95579.53;;;11.34;59.65
13581;BME280;6861;46.170;7.222;2023-11-21T00:40:26;95563.06;;;11.28;59.32
13581;BME280;6861;46.170;7.222;2023-11-21T00:42:54;95565.50;;;11.25;59.85
13581;BME280;6861;46.170;7.222;2023-11-21T00:45:23;95556.69;;;11.15;59.40
13581;BME280;6861;46.170;7.222;2023-11-21T00:47:52;95556.25;;;11.08;59.37
13581;BME280;6861;46.170;7.222;2023-11-21T00:50:22;95560.47;;;11.04;59.63
13581;BME280;6861;46.170;7.222;2023-11-21T00:52:51;95560.53;;;10.99;59.68
13581;BME280;6861;46.170;7.222;2023-11-21T00:55:19;95553.78;;;10.93;59.79
13581;BME280;6861;46.170;7.222;2023-11-21T00:57:49;95557.50;;;10.87;60.05
13581;BME280;6861;46.170;7.222;2023-11-21T01:00:18;95559.41;;;10.76;60.65
13581;BME280;6861;46.170;7.222;2023-11-21T01:02:46;95559.97;;;10.73;60.62
13581;BME280;6861;46.170;7.222;2023-11-21T01:05:15;95568.09;;;10.72;60.59
13581;BME280;6861;46.170;7.222;2023-11-21T01:07:43;95567.59;;;10.70;60.83
13581;BME280;6861;46.170;7.222;2023-11-21T01:10:12;95554.25;;;10.66;60.69
13581;BME280;6861;46.170;7.222;2023-11-21T01:12:41;95570.25;;;10.65;60.59
13581;BME280;6861;46.170;7.222;2023-11-21T01:15:11;95562.16;;;10.61;60.32
13581;BME280;6861;46.170;7.222;2023-11-21T01:17:40;95562.94;;;10.62;60.41
13581;BME280;6861;46.170;7.222;2023-11-21T01:20:11;95559.81;;;10.60;60.54
13581;BME280;6861;46.170;7.222;2023-11-21T01:22:41;95565.81;;;10.60;60.58
13581;BME280;6861;46.170;7.222;2023-11-21T01:25:10;95570.28;;;10.60;60.52
13581;BME280;6861;46.170;7.222;2023-11-21T01:27:37;95572.94;;;10.55;60.35
13581;BME280;6861;46.170;7.222;2023-11-21T01:30:07;95572.94;;;10.55;60.24
13581;BME280;6861;46.170;7.222;2023-11-21T01:32:39;95574.53;;;10.50;60.41
13581;BME280;6861;46.170;7.222;2023-11-21T01:35:08;95580.28;;;10.52;60.67
13581;BME280;6861;46.170;7.222;2023-11-21T01:37:37;95579.25;;;10.48;60.75
13581;BME280;6861;46.170;7.222;2023-11-21T01:40:07;95574.84;;;10.44;60.91
13581;BME280;6861;46.170;7.222;2023-11-21T01:42:41;95572.50;;;10.42;61.06
13581;BME280;6861;46.170;7.222;2023-11-21T01:45:10;95573.56;;;10.41;60.82
13581;BME280;6861;46.170;7.222;2023-11-21T01:47:42;95578.78;;;10.41;60.76
13581;BME280;6861;46.170;7.222;2023-11-21T01:50:15;95572.56;;;10.37;60.69
13581;BME280;6861;46.170;7.222;2023-11-21T01:52:46;95574.16;;;10.33;61.24
13581;BME280;6861;46.170;7.222;2023-11-21T01:55:16;95581.50;;;10.31;60.70
13581;BME280;6861;46.170;7.222;2023-11-21T01:57:54;95584.66;;;10.28;60.78
13581;BME280;6861;46.170;7.222;2023-11-21T02:00:23;95571.09;;;10.21;61.08
13581;BME280;6861;46.170;7.222;2023-11-21T02:02:54;95571.38;;;10.20;60.95
13581;BME280;6861;46.170;7.222;2023-11-21T02:05:23;95572.66;;;10.17;61.09
13581;BME280;6861;46.170;7.222;2023-11-21T02:07:52;95566.91;;;10.20;60.87
13581;BME280;6861;46.170;7.222;2023-11-21T02:10:21;95567.44;;;10.22;61.26
13581;BME280;6861;46.170;7.222;2023-11-21T02:12:51;95558.28;;;10.20;61.41
13581;BME280;6861;46.170;7.222;2023-11-21T02:15:19;95555.91;;;10.18;61.32
13581;BME280;6861;46.170;7.222;2023-11-21T02:17:49;95552.78;;;10.21;60.83
13581;BME280;6861;46.170;7.222;2023-11-21T02:20:21;95552.78;;;10.21;61.00
13581;BME280;6861;46.170;7.222;2023-11-21T02:22:54;95558.53;;;10.18;60.93
13581;BME280;6861;46.170;7.222;2023-11-21T02:25:26;95549.94;;;10.12;61.25
13581;BME280;6861;46.170;7.222;2023-11-21T02:27:56;95550.72;;;10.13;61.59
13581;BME280;6861;46.170;7.222;2023-11-21T02:30:24;95530.34;;;10.10;61.50
13581;BME280;6861;46.170;7.222;2023-11-21T02:32:55;95538.47;;;10.08;61.44
13581;BME280;6861;46.170;7.222;2023-11-21T02:35:24;95531.69;;;10.07;61.56
13581;BME280;6861;46.170;7.222;2023-11-21T02:37:55;95529.34;;;10.06;61.64
13581;BME280;6861;46.170;7.222;2023-11-21T02:40:23;95521.50;;;10.06;61.13
13581;BME280;6861;46.170;7.222;2023-11-21T02:42:54;95521.53;;;10.01;62.08
13581;BME280;6861;46.170;7.222;2023-11-21T02:45:24;95516.63;;;9.89;62.01
13581;BME280;6861;46.170;7.222;2023-11-21T02:47:53;95513.53;;;9.82;62.15
13581;BME280;6861;46.170;7.222;2023-11-21T02:50:25;95507.03;;;9.74;62.27
13581;BME280;6861;46.170;7.222;2023-11-21T02:52:56;95501.81;;;9.74;61.74
13581;BME280;6861;46.170;7.222;2023-11-21T02:55:27;95509.16;;;9.72;62.10
13581;BME280;6861;46.170;7.222;2023-11-21T02:57:56;95506.81;;;9.71;62.21
13581;BME280;6861;46.170;7.222;2023-11-21T03:00:24;95510.72;;;9.73;61.66
13581;BME280;6861;46.170;7.222;2023-11-21T03:02:54;95501.84;;;9.69;61.92
13581;BME280;6861;46.170;7.222;2023-11-21T03:05:24;95499.78;;;9.66;62.12
13581;BME280;6861;46.170;7.222;2023-11-21T03:07:52;95495.09;;;9.63;61.96
13581;BME280;6861;46.170;7.222;2023-11-21T03:10:22;95497.44;;;9.65;62.25
13581;BME280;6861;46.170;7.222;2023-11-21T03:12:50;95499.22;;;9.69;61.99
13581;BME280;6861;46.170;7.222;2023-11-21T03:15:19;95502.91;;;9.68;62.10
13581;BME280;6861;46.170;7.222;2023-11-21T03:17:48;95504.47;;;9.69;61.96
13581;BME280;6861;46.170;7.222;2023-11-21T03:20:17;95507.34;;;9.68;61.79
13581;BME280;6861;46.170;7.222;2023-11-21T03:22:45;95509.19;;;9.62;61.96
13581;BME280;6861;46.170;7.222;2023-11-21T03:25:15;95512.88;;;9.56;62.47
13581;BME280;6861;46.170;7.222;2023-11-21T03:27:46;95521.88;;;9.40;62.25
13581;BME280;6861;46.170;7.222;2023-11-21T03:30:15;95526.34;;;9.24;62.33
13581;BME280;6861;46.170;7.222;2023-11-21T03:32:43;95525.34;;;9.10;63.06
13581;BME280;6861;46.170;7.222;2023-11-21T03:35:12;95531.38;;;9.05;63.00
13581;BME280;6861;46.170;7.222;2023-11-21T03:37:40;95528.78;;;9.00;63.24
13581;BME280;6861;46.170;7.222;2023-11-21T03:40:11;95520.94;;;9.00;63.03
13581;BME280;6861;46.170;7.222;2023-11-21T03:42:40;95525.13;;;9.01;62.98
13581;BME280;6861;46.170;7.222;2023-11-21T03:45:10;95541.81;;;9.00;62.88
13581;BME280;6861;46.170;7.222;2023-11-21T03:47:40;95529.81;;;8.94;63.08
13581;BME280;6861;46.170;7.222;2023-11-21T03:50:09;95537.66;;;8.94;63.20
13581;BME280;6861;46.170;7.222;2023-11-21T03:52:38;95530.88;;;8.88;63.68
13581;BME280;6861;46.170;7.222;2023-11-21T03:55:08;95532.97;;;8.86;64.03
13581;BME280;6861;46.170;7.222;2023-11-21T03:57:37;95522.56;;;8.76;64.13
13581;BME280;6861;46.170;7.222;2023-11-21T04:00:07;95539.78;;;8.77;64.15
13581;BME280;6861;46.170;7.222;2023-11-21T04:02:38;95535.34;;;8.77;64.47
13581;BME280;6861;46.170;7.222;2023-11-21T04:05:07;95529.06;;;8.73;63.94
13581;BME280;6861;46.170;7.222;2023-11-21T04:07:36;95535.59;;;8.81;64.64
13581;BME280;6861;46.170;7.222;2023-11-21T04:10:07;95533.22;;;8.84;64.40
13581;BME280;6861;46.170;7.222;2023-11-21T04:12:39;95538.19;;;8.86;64.23
13581;BME280;6861;46.170;7.222;2023-11-21T04:15:09;95528.81;;;8.85;64.36
13581;BME280;6861;46.170;7.222;2023-11-21T04:17:39;95534.00;;;8.90;64.78
13581;BME280;6861;46.170;7.222;2023-11-21T04:20:08;95535.31;;;8.93;64.12
13581;BME280;6861;46.170;7.222;2023-11-21T04:22:38;95540.25;;;8.94;64.08
13581;BME280;6861;46.170;7.222;2023-11-21T04:25:14;95541.31;;;8.98;64.13
13581;BME280;6861;46.170;7.222;2023-11-21T04:27:44;95549.63;;;9.10;64.22
13581;BME280;6861;46.170;7.222;2023-11-21T04:30:13;95552.97;;;9.26;63.84
13581;BME280;6861;46.170;7.222;2023-11-21T04:32:43;95548.50;;;9.37;63.58
13581;BME280;6861;46.170;7.222;2023-11-21T04:35:12;95537.78;;;9.43;63.32
13581;BME280;6861;46.170;7.222;2023-11-21T04:37:41;95538.03;;;9.47;63.24
13581;BME280;6861;46.170;7.222;2023-11-21T04:40:11;95545.88;;;9.42;63.13
13581;BME280;6861;46.170;7.222;2023-11-21T04:42:40;95539.09;;;9.41;63.12
13581;BME280;6861;46.170;7.222;2023-11-21T04:45:09;95545.88;;;9.42;63.34
13581;BME280;6861;46.170;7.222;2023-11-21T04:47:39;95544.81;;;9.48;63.56
13581;BME280;6861;46.170;7.222;2023-11-21T04:50:10;95555.00;;;9.49;63.31
13581;BME280;6861;46.170;7.222;2023-11-21T04:52:38;95552.66;;;9.48;63.63
13581;BME280;6861;46.170;7.222;2023-11-21T04:55:08;95543.25;;;9.47;63.64
13581;BME280;6861;46.170;7.222;2023-11-21T04:57:38;95542.75;;;9.40;63.35
13581;BME280;6861;46.170;7.222;2023-11-21T05:00:10;95539.66;;;9.33;63.56
13581;BME280;6861;46.170;7.222;2023-11-21T05:02:40;95546.44;;;9.29;63.48
13581;BME280;6861;46.170;7.222;2023-11-21T05:05:12;95528.94;;;9.29;63.49
13581;BME280;6861;46.170;7.222;2023-11-21T05:07:41;95524.78;;;9.28;63.59
13581;BME280;6861;46.170;7.222;2023-11-21T05:10:10;95515.66;;;9.26;63.66
13581;BME280;6861;46.170;7.222;2023-11-21T05:12:42;95522.44;;;9.27;63.99
13581;BME280;6861;46.170;7.222;2023-11-21T05:15:14;95521.38;;;9.28;63.91
13581;BME280;6861;46.170;7.222;2023-11-21T05:17:43;95526.34;;;9.29;63.57
13581;BME280;6861;46.170;7.222;2023-11-21T05:20:14;95530.50;;;9.30;63.44
13581;BME280;6861;46.170;7.222;2023-11-21T05:22:48;95529.72;;;9.30;63.54
13581;BME280;6861;46.170;7.222;2023-11-21T05:25:17;95522.44;;;9.27;63.40
13581;BME280;6861;46.170;7.222;2023-11-21T05:27:46;95536.00;;;9.29;63.54
13581;BME280;6861;46.170;7.222;2023-11-21T05:30:14;95527.13;;;9.30;64.09
13581;BME280;6861;46.170;7.222;2023-11-21T05:32:43;95529.72;;;9.35;63.66
13581;BME280;6861;46.170;7.222;2023-11-21T05:35:15;95524.50;;;9.35;63.65
13581;BME280;6861;46.170;7.222;2023-11-21T05:37:44;95531.03;;;9.32;63.65
13581;BME280;6861;46.170;7.222;2023-11-21T05:40:14;95531.56;;;9.29;63.88
13581;BME280;6861;46.170;7.222;2023-11-21T05:42:44;95530.25;;;9.32;63.59
13581;BME280;6861;46.170;7.222;2023-11-21T05:45:12;95537.03;;;9.33;63.94
13581;BME280;6861;46.170;7.222;2023-11-21T05:47:42;95545.41;;;9.25;63.96
13581;BME280;6861;46.170;7.222;2023-11-21T05:50:11;95555.59;;;9.21;63.75
13581;BME280;6861;46.170;7.222;2023-11-21T05:52:44;95556.94;;;9.08;64.24
13581;BME280;6861;46.170;7.222;2023-11-21T05:55:13;95564.78;;;8.93;64.78
13581;BME280;6861;46.170;7.222;2023-11-21T05:57:43;95566.91;;;8.81;64.90
13581;BME280;6861;46.170;7.222;2023-11-21T06:00:14;95565.84;;;8.77;65.23
13581;BME280;6861;46.170;7.222;2023-11-21T06:02:49;95582.03;;;8.74;64.94
13581;BME280;6861;46.170;7.222;2023-11-21T06:05:22;95577.34;;;8.71;65.59
13581;BME280;6861;46.170;7.222;2023-11-21T06:07:54;95577.59;;;8.74;65.54
13581;BME280;6861;46.170;7.222;2023-11-21T06:10:26;95572.63;;;8.78;66.02
13581;BME280;6861;46.170;7.222;2023-11-21T06:12:55;95576.28;;;8.82;65.36
13581;BME280;6861;46.170;7.222;2023-11-21T06:15:29;95569.50;;;8.86;65.32
13581;BME280;6861;46.170;7.222;2023-11-21T06:17:57;95569.50;;;8.91;65.29
13581;BME280;6861;46.170;7.222;2023-11-21T06:20:26;95569.47;;;8.96;64.77
13581;BME280;6861;46.170;7.222;2023-11-21T06:22:56;95571.03;;;9.07;64.86
13581;BME280;6861;46.170;7.222;2023-11-21T06:25:25;95573.13;;;9.05;64.95
13581;BME280;6861;46.170;7.222;2023-11-21T06:27:53;95571.81;;;9.03;64.66
13581;BME280;6861;46.170;7.222;2023-11-21T06:30:23;95576.78;;;8.94;65.41
13581;BME280;6861;46.170;7.222;2023-11-21T06:32:51;95592.97;;;8.96;64.99
13581;BME280;6861;46.170;7.222;2023-11-21T06:35:20;95586.19;;;8.90;65.03
13581;BME280;6861;46.170;7.222;2023-11-21T06:37:49;95588.53;;;8.81;65.91
13581;BME280;6861;46.170;7.222;2023-11-21T06:40:20;95595.06;;;8.69;65.92
13581;BME280;6861;46.170;7.222;2023-11-21T06:42:49;95589.34;;;8.57;66.10
13581;BME280;6861;46.170;7.222;2023-11-21T06:45:18;95591.69;;;8.53;66.36
13581;BME280;6861;46.170;7.222;2023-11-21T06:47:48;95601.88;;;8.49;66.15
13581;BME280;6861;46.170;7.222;2023-11-21T06:50:27;95605.00;;;8.51;66.26
13581;BME280;6861;46.170;7.222;2023-11-21T06:52:55;95597.69;;;8.48;66.32
13581;BME280;6861;46.170;7.222;2023-11-21T06:55:25;95589.63;;;8.45;66.48
13581;BME280;6861;46.170;7.222;2023-11-21T06:57:54;95607.88;;;8.50;66.05
13581;BME280;6861;46.170;7.222;2023-11-21T07:00:22;95597.69;;;8.43;65.96
13581;BME280;6861;46.170;7.222;2023-11-21T07:02:51;95600.81;;;8.45;65.90
13581;BME280;6861;46.170;7.222;2023-11-21T07:05:20;95613.34;;;8.43;66.68
13581;BME280;6861;46.170;7.222;2023-11-21T07:07:49;95610.72;;;8.38;67.01
13581;BME280;6861;46.170;7.222;2023-11-21T07:10:18;95605.50;;;8.33;66.65
13581;BME280;6861;46.170;7.222;2023-11-21T07:12:48;95615.94;;;8.38;66.37
13581;BME280;6861;46.170;7.222;2023-11-21T07:15:18;95601.34;;;8.42;65.87
13581;BME280;6861;46.170;7.222;2023-11-21T07:17:46;95610.75;;;8.59;66.01
13581;BME280;6861;46.170;7.222;2023-11-21T07:20:16;95618.53;;;8.74;66.04
13581;BME280;6861;46.170;7.222;2023-11-21T07:22:45;95624.81;;;8.88;65.43
13581;BME280;6861;46.170;7.222;2023-11-21T07:25:13;95622.72;;;9.00;65.54
13581;BME280;6861;46.170;7.222;2023-11-21T07:27:42;95619.56;;;9.08;65.37
13581;BME280;6861;46.170;7.222;2023-11-21T07:30:13;95621.91;;;9.10;65.21
13581;BME280;6861;46.170;7.222;2023-11-21T07:32:42;95630.53;;;9.20;65.06
13581;BME280;6861;46.170;7.222;2023-11-21T07:35:18;95626.34;;;9.30;65.30
13581;BME280;6861;46.170;7.222;2023-11-21T07:37:46;95621.09;;;9.40;65.06
13581;BME280;6861;46.170;7.222;2023-11-21T07:40:24;95621.06;;;9.50;64.97
13581;BME280;6861;46.170;7.222;2023-11-21T07:42:56;95619.75;;;9.52;64.82
13581;BME280;6861;46.170;7.222;2023-11-21T07:45:27;95626.22;;;9.60;64.54
13581;BME280;6861;46.170;7.222;2023-11-21T07:47:55;95626.22;;;9.65;64.50
13581;BME280;6861;46.170;7.222;2023-11-21T07:50:24;95623.31;;;9.72;64.48
13581;BME280;6861;46.170;7.222;2023-11-21T07:52:53;95616.50;;;9.81;64.07
13581;BME280;6861;46.170;7.222;2023-11-21T07:55:22;95625.31;;;9.95;63.83
13581;BME280;6861;46.170;7.222;2023-11-21T07:57:51;95624.47;;;10.10;63.67
13581;BME280;6861;46.170;7.222;2023-11-21T08:00:20;95617.63;;;10.19;63.14
13581;BME280;6861;46.170;7.222;2023-11-21T08:02:50;95622.81;;;10.29;62.90
13581;BME280;6861;46.170;7.222;2023-11-21T08:05:18;95617.56;;;10.34;63.47
13581;BME280;6861;46.170;7.222;2023-11-21T08:08:00;95628.97;;;10.43;62.76
13581;BME280;6861;46.170;7.222;2023-11-21T08:10:28;95627.91;;;10.49;63.20
13581;BME280;6861;46.170;7.222;2023-11-21T08:12:57;95635.25;;;10.47;63.38
13581;BME280;6861;46.170;7.222;2023-11-21T08:15:26;95627.69;;;10.41;63.02
13581;BME280;6861;46.170;7.222;2023-11-21T08:17:55;95635.78;;;10.44;63.00
13581;BME280;6861;46.170;7.222;2023-11-21T08:20:24;95626.34;;;10.48;62.66
13581;BME280;6861;46.170;7.222;2023-11-21T08:22:52;95624.78;;;10.47;62.75
13581;BME280;6861;46.170;7.222;2023-11-21T08:25:23;95627.16;;;10.44;62.66
13581;BME280;6861;46.170;7.222;2023-11-21T08:27:52;95629.53;;;10.40;62.90
13581;BME280;6861;46.170;7.222;2023-11-21T08:30:20;95624.88;;;10.37;62.92
13581;BME280;6861;46.170;7.222;2023-11-21T08:32:51;95630.81;;;10.43;62.45
13581;BME280;6861;46.170;7.222;2023-11-21T08:35:22;95634.69;;;10.50;62.83
13581;BME280;6861;46.170;7.222;2023-11-21T08:37:51;95625.19;;;10.65;62.19
13581;BME280;6861;46.170;7.222;2023-11-21T08:40:21;95626.59;;;10.86;62.09
13581;BME280;6861;46.170;7.222;2023-11-21T08:42:50;95629.56;;;11.08;61.71
13581;BME280;6861;46.170;7.222;2023-11-21T08:45:20;95626.22;;;11.27;61.28
13581;BME280;6861;46.170;7.222;2023-11-21T08:47:49;95624.91;;;11.53;61.08
13581;BME280;6861;46.170;7.222;2023-11-21T08:50:17;95623.03;;;11.82;60.98
13581;BME280;6861;46.170;7.222;2023-11-21T08:52:47;95621.28;;;12.15;59.88
13581;BME280;6861;46.170;7.222;2023-11-21T08:55:16;95622.78;;;12.40;59.40
13581;BME280;6861;46.170;7.222;2023-11-21T08:57:46;95630.44;;;12.56;58.76
13581;BME280;6861;46.170;7.222;2023-11-21T09:00:15;95622.50;;;12.61;58.96
13581;BME280;6861;46.170;7.222;2023-11-21T09:02:44;95622.78;;;12.59;59.45
13581;BME280;6861;46.170;7.222;2023-11-21T09:05:13;95618.41;;;12.55;59.37
13581;BME280;6861;46.170;7.222;2023-11-21T09:07:42;95621.50;;;12.57;59.13
13581;BME280;6861;46.170;7.222;2023-11-21T09:10:14;95606.75;;;12.61;59.61
13581;BME280;6861;46.170;7.222;2023-11-21T09:12:42;95615.91;;;12.63;59.32
13581;BME280;6861;46.170;7.222;2023-11-21T09:15:11;95611.50;;;12.59;58.93
13581;BME280;6861;46.170;7.222;2023-11-21T09:17:40;95616.34;;;12.52;58.87
13581;BME280;6861;46.170;7.222;2023-11-21T09:20:10;95606.28;;;12.40;59.58
13581;BME280;6861;46.170;7.222;2023-11-21T09:22:39;95605.97;;;12.23;59.67
13581;BME280;6861;46.170;7.222;2023-11-21T09:25:08;95604.16;;;12.04;59.39
13581;BME280;6861;46.170;7.222;2023-11-21T09:27:38;95611.94;;;11.91;59.99
13581;BME280;6861;46.170;7.222;2023-11-21T09:30:07;95608.97;;;11.73;60.26
13581;BME280;6861;46.170;7.222;2023-11-21T09:32:38;95608.97;;;11.73;60.02
13581;BME280;6861;46.170;7.222;2023-11-21T09:35:08;95595.19;;;11.87;60.37
13581;BME280;6861;46.170;7.222;2023-11-21T09:37:37;95597.13;;;12.00;60.06
13581;BME280;6861;46.170;7.222;2023-11-21T09:40:10;95595.66;;;12.12;58.92
13581;BME280;6861;46.170;7.222;2023-11-21T09:42:46;95599.41;;;12.25;59.24
13581;BME280;6861;46.170;7.222;2023-11-21T09:45:21;95594.44;;;12.42;58.97
13581;BME280;6861;46.170;7.222;2023-11-21T09:47:53;95601.66;;;12.51;59.01
13581;BME280;6861;46.170;7.222;2023-11-21T09:50:23;95599.16;;;12.59;59.10
13581;BME280;6861;46.170;7.222;2023-11-21T09:53:01;95603.72;;;12.54;58.98
13581;BME280;6861;46.170;7.222;2023-11-21T09:55:35;95608.81;;;12.45;58.86
13581;BME280;6861;46.170;7.222;2023-11-21T09:58:05;95608.69;;;12.36;59.55
13581;BME280;6861;46.170;7.222;2023-11-21T10:00:34;95607.75;;;12.27;59.17
13581;BME280;6861;46.170;7.222;2023-11-21T10:03:03;95608.41;;;12.19;59.57
13581;BME280;6861;46.170;7.222;2023-11-21T10:05:31;95611.19;;;12.09;59.90
13581;BME280;6861;46.170;7.222;2023-11-21T10:08:01;95600.38;;;11.92;59.57
13581;BME280;6861;46.170;7.222;2023-11-21T10:10:32;95603.34;;;11.85;59.85
13581;BME280;6861;46.170;7.222;2023-11-21T10:13:02;95599.50;;;11.77;59.81
13581;BME280;6861;46.170;7.222;2023-11-21T10:15:34;95598.47;;;11.73;59.48
13581;BME280;6861;46.170;7.222;2023-11-21T10:18:06;95595.41;;;11.66;60.05
13581;BME280;6861;46.170;7.222;2023-11-21T10:20:36;95587.09;;;11.59;60.12
13581;BME280;6861;46.170;7.222;2023-11-21T10:23:05;95585.31;;;11.55;60.21
13581;BME280;6861;46.170;7.222;2023-11-21T10:25:34;95583.47;;;11.55;60.09
13581;BME280;6861;46.170;7.222;2023-11-21T10:28:04;95585.44;;;11.68;60.37
13581;BME280;6861;46.170;7.222;2023-11-21T10:30:37;95580.63;;;11.99;59.46
13581;BME280;6861;46.170;7.222;2023-11-21T10:33:07;95574.50;;;12.23;59.32
13581;BME280;6861;46.170;7.222;2023-11-21T10:35:42;95581.94;;;12.34;59.33
13581;BME280;6861;46.170;7.222;2023-11-21T10:38:14;95569.25;;;12.41;58.32
13581;BME280;6861;46.170;7.222;2023-11-21T10:40:42;95579.53;;;12.57;58.20
13581;BME280;6861;46.170;7.222;2023-11-21T10:43:13;95565.69;;;12.51;58.01
13581;BME280;6861;46.170;7.222;2023-11-21T10:45:43;95558.19;;;12.44;58.69
13581;BME280;6861;46.170;7.222;2023-11-21T10:48:14;95552.44;;;12.42;58.25
13581;BME280;6861;46.170;7.222;2023-11-21T10:50:45;95543.34;;;12.54;58.24
13581;BME280;6861;46.170;7.222;2023-11-21T10:53:14;95549.56;;;12.76;57.98
13581;BME280;6861;46.170;7.222;2023-11-21T10:55:42;95551.06;;;12.96;57.94
13581;BME280;6861;46.170;7.222;2023-11-21T10:58:14;95555.94;;;13.17;57.22
13581;BME280;6861;46.170;7.222;2023-11-21T11:00:45;95550.50;;;13.27;56.59
13581;BME280;6861;46.170;7.222;2023-11-21T11:03:14;95551.69;;;13.34;56.67
13581;BME280;6861;46.170;7.222;2023-11-21T11:05:44;95547.78;;;13.32;56.95
13581;BME280;6861;46.170;7.222;2023-11-21T11:08:21;95546.22;;;13.31;56.43
13581;BME280;6861;46.170;7.222;2023-11-21T11:10:55;95540.09;;;13.35;56.86
13581;BME280;6861;46.170;7.222;2023-11-21T11:13:25;95530.28;;;13.27;56.12
13581;BME280;6861;46.170;7.222;2023-11-21T11:15:58;95543.69;;;13.26;56.83
13581;BME280;6861;46.170;7.222;2023-11-21T11:18:29;95543.31;;;13.19;56.00
13581;BME280;6861;46.170;7.222;2023-11-21T11:21:05;95534.88;;;13.03;55.84
13581;BME280;6861;46.170;7.222;2023-11-21T11:23:46;95541.41;;;12.92;56.44
13581;BME280;6861;46.170;7.222;2023-11-21T11:26:28;95534.41;;;12.87;56.14
13581;BME280;6861;46.170;7.222;2023-11-21T11:29:10;95529.16;;;12.87;56.37
13581;BME280;6861;46.170;7.222;2023-11-21T11:31:51;95530.31;;;12.81;55.94
13581;BME280;6861;46.170;7.222;2023-11-21T11:34:29;95510.75;;;12.73;56.75
13581;BME280;6861;46.170;7.222;2023-11-21T11:37:09;95514.72;;;12.71;56.47
13581;BME280;6861;46.170;7.222;2023-11-21T11:39:39;95511.13;;;12.67;56.33
13581;BME280;6861;46.170;7.222;2023-11-21T11:42:13;95509.47;;;12.71;56.54
13581;BME280;6861;46.170;7.222;2023-11-21T11:44:50;95511.03;;;12.72;56.67
13581;BME280;6861;46.170;7.222;2023-11-21T11:47:26;95509.38;;;12.76;55.97
13581;BME280;6861;46.170;7.222;2023-11-21T11:50:03;95508.06;;;12.92;55.95
13581;BME280;6861;46.170;7.222;2023-11-21T11:52:37;95501.63;;;13.12;55.89
13581;BME280;6861;46.170;7.222;2023-11-21T11:55:08;95501.47;;;13.22;55.48
13581;BME280;6861;46.170;7.222;2023-11-21T19:32:01;95781.63;;;9.93;57.88
13581;BME280;6861;46.170;7.222;2023-11-21T19:34:31;95776.13;;;9.90;57.82
13581;BME280;6861;46.170;7.222;2023-11-21T19:37:04;95789.44;;;9.93;57.84
13581;BME280;6861;46.170;7.222;2023-11-21T19:39:33;95786.59;;;9.90;57.64
13581;BME280;6861;46.170;7.222;2023-11-21T19:42:01;95792.84;;;9.89;57.91
13581;BME280;6861;46.170;7.222;2023-11-21T19:44:30;95794.44;;;9.84;57.47
13581;BME280;6861;46.170;7.222;2023-11-21T19:46:59;95801.50;;;9.79;57.26
13581;BME280;6861;46.170;7.222;2023-11-21T19:49:29;95805.94;;;9.73;57.31
13581;BME280;6861;46.170;7.222;2023-11-21T19:51:57;95814.31;;;9.70;57.62
13581;BME280;6861;46.170;7.222;2023-11-21T19:54:25;95814.56;;;9.64;57.52
13581;BME280;6861;46.170;7.222;2023-11-21T19:56:53;95816.91;;;9.65;57.65
13581;BME280;6861;46.170;7.222;2023-11-21T19:59:22;95813.78;;;9.63;57.62
13581;BME280;6861;46.170;7.222;2023-11-21T20:01:50;95824.50;;;9.67;57.21
13581;BME280;6861;46.170;7.222;2023-11-21T20:04:19;95819.00;;;9.63;57.02
13581;BME280;6861;46.170;7.222;2023-11-21T20:06:49;95832.59;;;9.55;56.74
13581;BME280;6861;46.170;7.222;2023-11-21T20:09:22;95835.47;;;9.53;56.98
13581;BME280;6861;46.170;7.222;2023-11-21T20:11:51;95836.25;;;9.54;56.89
13581;BME280;6861;46.170;7.222;2023-11-21T20:14:19;95846.44;;;9.50;56.99
13581;BME280;6861;46.170;7.222;2023-11-21T20:16:48;95851.41;;;9.47;57.11
13581;BME280;6861;46.170;7.222;2023-11-21T20:19:16;95851.94;;;9.39;57.41
13581;BME280;6861;46.170;7.222;2023-11-21T20:21:44;95858.97;;;9.33;57.51
13581;BME280;6861;46.170;7.222;2023-11-21T20:24:14;95855.56;;;9.28;57.52
13581;BME280;6861;46.170;7.222;2023-11-21T20:26:43;95864.94;;;9.24;57.55
13581;BME280;6861;46.170;7.222;2023-11-21T20:29:11;95873.28;;;9.10;57.86
13581;BME280;6861;46.170;7.222;2023-11-21T20:31:40;95866.44;;;8.99;58.93
13581;BME280;6861;46.170;7.222;2023-11-21T20:34:09;95872.94;;;8.92;59.06
13581;BME280;6861;46.170;7.222;2023-11-21T20:36:37;95874.78;;;8.91;58.84
13581;BME280;6861;46.170;7.222;2023-11-21T20:39:05;95875.28;;;8.88;59.52
13581;BME280;6861;46.170;7.222;2023-11-21T20:41:35;95881.50;;;8.82;59.74
13581;BME280;6861;46.170;7.222;2023-11-21T20:44:04;95878.34;;;8.75;59.84
13581;BME280;6861;46.170;7.222;2023-11-21T20:46:39;95879.41;;;8.74;59.72
13581;BME280;6861;46.170;7.222;2023-11-21T20:49:09;95883.31;;;8.76;59.32
13581;BME280;6861;46.170;7.222;2023-11-21T20:51:38;95890.91;;;8.83;58.99
13581;BME280;6861;46.170;7.222;2023-11-21T20:54:06;95884.66;;;8.84;58.68
13581;BME280;6861;46.170;7.222;2023-11-21T20:56:37;95872.16;;;8.91;58.32
13581;BME280;6861;46.170;7.222;2023-11-21T20:59:05;95877.69;;;9.05;58.07
13581;BME280;6861;46.170;7.222;2023-11-21T21:01:35;95874.31;;;9.14;58.27
13581;BME280;6861;46.170;7.222;2023-11-21T21:04:04;95879.03;;;9.17;58.25
13581;BME280;6861;46.170;7.222;2023-11-21T21:06:34;95885.31;;;9.22;58.00